Airfield :
LOGIN :

Register | Disclaimer

   EN    FR    IT 

 










Legend :    VFR   Marginal VFR   IFR   Intensive IFR   Very Intensive IFR
Visi :
Ceiling :
>= 8 km
>= 3000ft
5 to 8 km
1000 to 3000 ft
1500m to 5 km
500 to 1000 ft
800 to 1500m
200 to 500 ft
< 800m
< 200 ft
Symbols :   Thunderstorms  Fog  Heavy snow  Heavy precipitations  Wind > 20 kt
SIGMETs :     Misc.  Thunderstorms  Icing  Turbulence  Mountain Waves  Volcanic Ashes






- Airport Elevation : 256 ft
- IATA code : CFR


LFRK - Caen

CURRENT METAR :
  • 090800Z AUTO 02008KT 340V060 CAVOK 21/14 Q1027 NOSIG

EXPIRED METARs :
  • 090730Z AUTO 04008KT 010V080 CAVOK 20/14 Q1027 NOSIG
  • 090700Z AUTO 05007KT 010V080 CAVOK 19/14 Q1027 NOSIG
  • 090630Z AUTO VRB03KT CAVOK 18/15 Q1027 NOSIG
  • 090600Z AUTO 32003KT CAVOK 16/14 Q1026 BECMG 04010KT
  • 090530Z AUTO VRB03KT CAVOK 14/13 Q1026 NOSIG

TAF TAF LFRK
Valid from the 09 at 06:00 until the 09 at 15:00 UTC


090500Z 0906/0915 VRB05KT CAVOK
BECMG 0907/0909 04010KT
BECMG 0910/0912 03015G25KT
Met : +33 2 31 26 68 11



MET'MAP, your aeronautical weather chart ! - Copyright ORBIFLY December 2007 - Disclaimer

ORBIFLY MET'MAP TEAM :

Programming & Development : Alexandra Zaïnal
Original concept : Baudouin d'Aumeries
Technical & hardware support : Manuel Goepfert
Assistance : Marc-Olivier Méhu




SOURCES & CREDITS :

   NOAA